TSC218 CYUL-MPSM
Flight info
| Callsign | TSC218 |
|---|---|
| Flight time | 5h 22m |
| Altitude | 34000 |
| Route | FAWNS DCT BUGSY DCT SYR J59 PSB DCT PYTON Q129 GARIC AR3 JAZZI Y319 URSUS/N0459F350 UL780 TBG/N0375F180 Q19 DAMAX DCT UKATI |
| Aircraft | A21N/M-SDE3FGHIRWY/LB1 |
Departure
| Time | 2026-04-24 11:18 |
|---|---|
| Airport | Montreal / Pierre Elliott Trudeau International Airport (CYUL) |
Arrival
| Time | 2026-04-24 16:40 |
|---|---|
| Airport | Scarlett Martinez International Airport (MPSM) |
| Time | Latitude | Longitude | Altitude | Speed | Heading |
|---|---|---|---|---|---|
| 2026-04-24 10:42 | 45.45969 | -73.75797 | 106 ft | 0 kts | 167° |
| 2026-04-24 11:00 | 45.45976 | -73.75800 | 106 ft | 2 kts | 166° |
| 2026-04-24 11:00 | 45.45991 | -73.75805 | 106 ft | 2 kts | 167° |
| 2026-04-24 11:00 | 45.46005 | -73.75809 | 106 ft | 2 kts | 167° |
| 2026-04-24 11:00 | 45.46020 | -73.75814 | 106 ft | 2 kts | 167° |
| 2026-04-24 11:01 | 45.46029 | -73.75816 | 106 ft | 2 kts | 166° |
| 2026-04-24 11:01 | 45.46042 | -73.75826 | 106 ft | 2 kts | 137° |
| 2026-04-24 11:01 | 45.46052 | -73.75842 | 106 ft | 2 kts | 117° |
| 2026-04-24 11:01 | 45.46056 | -73.75862 | 106 ft | 2 kts | 95° |
| 2026-04-24 11:02 | 45.46057 | -73.75873 | 106 ft | 1 kts | 83° |
| 2026-04-24 11:02 | 45.46056 | -73.75880 | 106 ft | 0 kts | 86° |
| 2026-04-24 11:04 | 45.46056 | -73.75878 | 106 ft | 0 kts | 86° |
| 2026-04-24 11:05 | 45.46057 | -73.75864 | 106 ft | 2 kts | 88° |
| 2026-04-24 11:05 | 45.46057 | -73.75841 | 106 ft | 3 kts | 88° |
| 2026-04-24 11:05 | 45.46058 | -73.75794 | 106 ft | 5 kts | 88° |
| 2026-04-24 11:05 | 45.46064 | -73.75739 | 106 ft | 5 kts | 62° |
| 2026-04-24 11:06 | 45.46101 | -73.75710 | 106 ft | 6 kts | 25° |
| 2026-04-24 11:06 | 45.46128 | -73.75657 | 106 ft | 7 kts | 77° |
| 2026-04-24 11:06 | 45.46133 | -73.75581 | 106 ft | 8 kts | 84° |
| 2026-04-24 11:06 | 45.46139 | -73.75496 | 106 ft | 8 kts | 87° |
| 2026-04-24 11:07 | 45.46141 | -73.75304 | 106 ft | 10 kts | 87° |
| 2026-04-24 11:07 | 45.46144 | -73.75197 | 106 ft | 11 kts | 87° |
| 2026-04-24 11:07 | 45.46147 | -73.75085 | 106 ft | 11 kts | 87° |
| 2026-04-24 11:08 | 45.46151 | -73.74967 | 106 ft | 11 kts | 87° |
| 2026-04-24 11:08 | 45.46155 | -73.74857 | 109 ft | 10 kts | 87° |
| 2026-04-24 11:08 | 45.46158 | -73.74757 | 109 ft | 10 kts | 88° |
| 2026-04-24 11:08 | 45.46161 | -73.74651 | 110 ft | 10 kts | 87° |
| 2026-04-24 11:09 | 45.46146 | -73.74574 | 109 ft | 8 kts | 123° |
| 2026-04-24 11:09 | 45.46125 | -73.74487 | 109 ft | 9 kts | 91° |
| 2026-04-24 11:09 | 45.46126 | -73.74386 | 109 ft | 10 kts | 87° |
| 2026-04-24 11:09 | 45.46129 | -73.74279 | 109 ft | 11 kts | 88° |
| 2026-04-24 11:10 | 45.46131 | -73.74143 | 106 ft | 15 kts | 89° |
| 2026-04-24 11:10 | 45.46170 | -73.74006 | 106 ft | 15 kts | 43° |
| 2026-04-24 11:10 | 45.46249 | -73.73903 | 106 ft | 15 kts | 42° |
| 2026-04-24 11:10 | 45.46330 | -73.73795 | 106 ft | 16 kts | 42° |
| 2026-04-24 11:11 | 45.46421 | -73.73676 | 106 ft | 19 kts | 42° |
| 2026-04-24 11:11 | 45.46525 | -73.73537 | 107 ft | 21 kts | 43° |
| 2026-04-24 11:11 | 45.46630 | -73.73402 | 110 ft | 19 kts | 41° |
| 2026-04-24 11:11 | 45.46727 | -73.73279 | 110 ft | 18 kts | 43° |
| 2026-04-24 11:12 | 45.46818 | -73.73153 | 110 ft | 18 kts | 44° |
| 2026-04-24 11:12 | 45.46908 | -73.73035 | 111 ft | 16 kts | 42° |
| 2026-04-24 11:12 | 45.46990 | -73.72926 | 113 ft | 15 kts | 43° |
| 2026-04-24 11:12 | 45.47069 | -73.72823 | 113 ft | 15 kts | 41° |
| 2026-04-24 11:13 | 45.47147 | -73.72720 | 115 ft | 14 kts | 43° |
| 2026-04-24 11:13 | 45.47217 | -73.72628 | 117 ft | 14 kts | 42° |
| 2026-04-24 11:13 | 45.47297 | -73.72524 | 119 ft | 15 kts | 43° |
| 2026-04-24 11:13 | 45.47380 | -73.72414 | 122 ft | 17 kts | 43° |
| 2026-04-24 11:14 | 45.47475 | -73.72289 | 124 ft | 19 kts | 43° |
| 2026-04-24 11:14 | 45.47577 | -73.72155 | 127 ft | 20 kts | 43° |
| 2026-04-24 11:14 | 45.47680 | -73.72020 | 127 ft | 16 kts | 43° |
| 2026-04-24 11:14 | 45.47745 | -73.71935 | 130 ft | 8 kts | 42° |
| 2026-04-24 11:15 | 45.47790 | -73.71876 | 130 ft | 9 kts | 42° |
| 2026-04-24 11:15 | 45.47815 | -73.71830 | 131 ft | 5 kts | 70° |
| 2026-04-24 11:15 | 45.47805 | -73.71783 | 131 ft | 4 kts | 135° |
| 2026-04-24 11:15 | 45.47781 | -73.71752 | 132 ft | 4 kts | 136° |
| 2026-04-24 11:16 | 45.47761 | -73.71723 | 133 ft | 4 kts | 134° |
| 2026-04-24 11:16 | 45.47738 | -73.71689 | 133 ft | 5 kts | 134° |
| 2026-04-24 11:16 | 45.47711 | -73.71651 | 134 ft | 5 kts | 135° |
| 2026-04-24 11:16 | 45.47684 | -73.71631 | 135 ft | 4 kts | 196° |
| 2026-04-24 11:17 | 45.47654 | -73.71664 | 134 ft | 6 kts | 221° |
| 2026-04-24 11:17 | 45.47595 | -73.71741 | 132 ft | 29 kts | 222° |
| 2026-04-24 11:17 | 45.47250 | -73.72195 | 124 ft | 101 kts | 221° |
| 2026-04-24 11:17 | 45.46594 | -73.73054 | 110 ft | 158 kts | 222° |
| 2026-04-24 11:18 | 45.45704 | -73.74249 | 379 ft | 182 kts | 226° |
| 2026-04-24 11:18 | 45.44793 | -73.75536 | 933 ft | 191 kts | 226° |
| 2026-04-24 11:18 | 45.43849 | -73.76842 | 1705 ft | 191 kts | 225° |
| 2026-04-24 11:18 | 45.42889 | -73.78082 | 2331 ft | 188 kts | 224° |
| 2026-04-24 11:19 | 45.41896 | -73.79309 | 2738 ft | 194 kts | 223° |
| 2026-04-24 11:19 | 45.40853 | -73.80584 | 3020 ft | 207 kts | 223° |
| 2026-04-24 11:19 | 45.39716 | -73.81915 | 3306 ft | 222 kts | 216° |
| 2026-04-24 11:19 | 45.38308 | -73.82990 | 3586 ft | 239 kts | 206° |
| 2026-04-24 11:20 | 45.36732 | -73.83977 | 3857 ft | 258 kts | 205° |
| 2026-04-24 11:20 | 45.35035 | -73.85030 | 4189 ft | 273 kts | 205° |
| 2026-04-24 11:20 | 45.33296 | -73.86144 | 4698 ft | 281 kts | 206° |
| 2026-04-24 11:20 | 45.31523 | -73.87311 | 5357 ft | 283 kts | 207° |
| 2026-04-24 11:21 | 45.29722 | -73.88513 | 5983 ft | 287 kts | 208° |
| 2026-04-24 11:21 | 45.27937 | -73.89718 | 6592 ft | 290 kts | 208° |
| 2026-04-24 11:21 | 45.26106 | -73.90958 | 7204 ft | 294 kts | 209° |
| 2026-04-24 11:21 | 45.24227 | -73.92233 | 7779 ft | 299 kts | 209° |
| 2026-04-24 11:22 | 45.22370 | -73.93496 | 8343 ft | 303 kts | 210° |
| 2026-04-24 11:22 | 45.20449 | -73.94801 | 8903 ft | 307 kts | 210° |
| 2026-04-24 11:22 | 45.18515 | -73.96114 | 9453 ft | 311 kts | 210° |
| 2026-04-24 11:22 | 45.16560 | -73.97440 | 9982 ft | 315 kts | 210° |
| 2026-04-24 11:23 | 45.14563 | -73.98795 | 10391 ft | 324 kts | 210° |
| 2026-04-24 11:23 | 45.12484 | -74.00211 | 10651 ft | 338 kts | 210° |
| 2026-04-24 11:23 | 45.10311 | -74.01685 | 10910 ft | 352 kts | 210° |
| 2026-04-24 11:23 | 45.08071 | -74.03201 | 11164 ft | 364 kts | 210° |
| 2026-04-24 11:24 | 45.05757 | -74.04758 | 11572 ft | 371 kts | 210° |
| 2026-04-24 11:24 | 45.03410 | -74.06335 | 12108 ft | 374 kts | 210° |
| 2026-04-24 11:24 | 45.01067 | -74.07881 | 12638 ft | 378 kts | 207° |
| 2026-04-24 11:24 | 44.98556 | -74.09096 | 13141 ft | 384 kts | 199° |
| 2026-04-24 11:25 | 44.95916 | -74.09825 | 13635 ft | 390 kts | 192° |
| 2026-04-24 11:25 | 44.93231 | -74.10329 | 14114 ft | 394 kts | 190° |
| 2026-04-24 11:25 | 44.90509 | -74.10795 | 14566 ft | 397 kts | 191° |
| 2026-04-24 11:25 | 44.87769 | -74.11272 | 14973 ft | 400 kts | 191° |
| 2026-04-24 11:26 | 44.85020 | -74.11769 | 15335 ft | 405 kts | 191° |
| 2026-04-24 11:26 | 44.82233 | -74.12286 | 15727 ft | 408 kts | 191° |
| 2026-04-24 11:26 | 44.79384 | -74.12824 | 16121 ft | 411 kts | 191° |
| 2026-04-24 11:26 | 44.76554 | -74.13354 | 16461 ft | 415 kts | 192° |
| 2026-04-24 11:27 | 44.73691 | -74.14051 | 16789 ft | 415 kts | 202° |
| 2026-04-24 11:27 | 44.71130 | -74.15710 | 17118 ft | 404 kts | 221° |
| 2026-04-24 11:27 | 44.69035 | -74.18220 | 17514 ft | 395 kts | 232° |
| 2026-04-24 11:27 | 44.67090 | -74.20945 | 17849 ft | 398 kts | 234° |
| 2026-04-24 11:28 | 44.65157 | -74.23692 | 18190 ft | 400 kts | 234° |
| 2026-04-24 11:28 | 44.63177 | -74.26487 | 18532 ft | 404 kts | 234° |
| 2026-04-24 11:28 | 44.61191 | -74.29256 | 18874 ft | 407 kts | 233° |
| 2026-04-24 11:28 | 44.59181 | -74.32026 | 19238 ft | 409 kts | 233° |
| 2026-04-24 11:29 | 44.57152 | -74.34802 | 19632 ft | 409 kts | 234° |
| 2026-04-24 11:29 | 44.55108 | -74.37592 | 20039 ft | 410 kts | 234° |
| 2026-04-24 11:29 | 44.53054 | -74.40394 | 20390 ft | 412 kts | 234° |
| 2026-04-24 11:29 | 44.51018 | -74.43163 | 20690 ft | 414 kts | 234° |
| 2026-04-24 11:30 | 44.48945 | -74.45979 | 21046 ft | 415 kts | 234° |
| 2026-04-24 11:30 | 44.46893 | -74.48759 | 21367 ft | 417 kts | 234° |
| 2026-04-24 11:30 | 44.44827 | -74.51558 | 21678 ft | 418 kts | 234° |
| 2026-04-24 11:30 | 44.42739 | -74.54383 | 22027 ft | 419 kts | 234° |
| 2026-04-24 11:31 | 44.40648 | -74.57213 | 22327 ft | 421 kts | 234° |
| 2026-04-24 11:31 | 44.38532 | -74.60069 | 22617 ft | 423 kts | 234° |
| 2026-04-24 11:31 | 44.36431 | -74.62901 | 22918 ft | 424 kts | 234° |
| 2026-04-24 11:31 | 44.34315 | -74.65752 | 23207 ft | 425 kts | 233° |
| 2026-04-24 11:32 | 44.32201 | -74.68597 | 23487 ft | 427 kts | 233° |
| 2026-04-24 11:32 | 44.30101 | -74.71423 | 23760 ft | 429 kts | 233° |
| 2026-04-24 11:32 | 44.27987 | -74.74263 | 24023 ft | 430 kts | 233° |
| 2026-04-24 11:32 | 44.25822 | -74.77168 | 24275 ft | 433 kts | 233° |
| 2026-04-24 11:33 | 44.23763 | -74.79926 | 24519 ft | 434 kts | 233° |
| 2026-04-24 11:33 | 44.21578 | -74.82849 | 24782 ft | 436 kts | 233° |
| 2026-04-24 11:33 | 44.19378 | -74.85790 | 25082 ft | 437 kts | 233° |
| 2026-04-24 11:33 | 44.17208 | -74.88688 | 25356 ft | 438 kts | 234° |
| 2026-04-24 11:34 | 44.14982 | -74.91662 | 25614 ft | 440 kts | 233° |
| 2026-04-24 11:34 | 44.12781 | -74.94596 | 25825 ft | 443 kts | 234° |
| 2026-04-24 11:34 | 44.10582 | -74.97523 | 26079 ft | 444 kts | 234° |
| 2026-04-24 11:34 | 44.08393 | -75.00433 | 26278 ft | 447 kts | 234° |
| 2026-04-24 11:35 | 44.06131 | -75.03440 | 26505 ft | 449 kts | 234° |
| 2026-04-24 11:35 | 44.03859 | -75.06457 | 26749 ft | 450 kts | 234° |
| 2026-04-24 11:35 | 44.01602 | -75.09451 | 26968 ft | 452 kts | 233° |
| 2026-04-24 11:35 | 43.99358 | -75.12421 | 27179 ft | 454 kts | 234° |
| 2026-04-24 11:36 | 43.97086 | -75.15422 | 27424 ft | 455 kts | 233° |
| 2026-04-24 11:36 | 43.94771 | -75.18484 | 27635 ft | 457 kts | 233° |
| 2026-04-24 11:36 | 43.92487 | -75.21500 | 27796 ft | 459 kts | 233° |
| 2026-04-24 11:36 | 43.90174 | -75.24550 | 28051 ft | 460 kts | 233° |
| 2026-04-24 11:37 | 43.88064 | -75.27326 | 28221 ft | 461 kts | 233° |
| 2026-04-24 11:37 | 43.85853 | -75.30234 | 28404 ft | 462 kts | 233° |
| 2026-04-24 11:37 | 43.83510 | -75.33309 | 28696 ft | 461 kts | 233° |
| 2026-04-24 11:37 | 43.81176 | -75.36369 | 29004 ft | 459 kts | 234° |
| 2026-04-24 11:38 | 43.78881 | -75.39372 | 29252 ft | 459 kts | 234° |
| 2026-04-24 11:38 | 43.76604 | -75.42358 | 29436 ft | 460 kts | 234° |
| 2026-04-24 11:38 | 43.74290 | -75.45387 | 29629 ft | 461 kts | 234° |
| 2026-04-24 11:38 | 43.71989 | -75.48395 | 29860 ft | 460 kts | 233° |
| 2026-04-24 11:39 | 43.69688 | -75.51399 | 30136 ft | 459 kts | 233° |
| 2026-04-24 11:39 | 43.67418 | -75.54356 | 30418 ft | 458 kts | 233° |
| 2026-04-24 11:39 | 43.65124 | -75.57342 | 30671 ft | 457 kts | 234° |
| 2026-04-24 11:39 | 43.62868 | -75.60274 | 30902 ft | 456 kts | 233° |
| 2026-04-24 11:40 | 43.60600 | -75.63223 | 31151 ft | 455 kts | 233° |
| 2026-04-24 11:40 | 43.58340 | -75.66159 | 31379 ft | 455 kts | 233° |
| 2026-04-24 11:40 | 43.56134 | -75.69023 | 31550 ft | 456 kts | 233° |
| 2026-04-24 11:40 | 43.53860 | -75.71968 | 31747 ft | 456 kts | 233° |
| 2026-04-24 11:41 | 43.51613 | -75.74876 | 31985 ft | 456 kts | 233° |
| 2026-04-24 11:41 | 43.49324 | -75.77834 | 32206 ft | 455 kts | 233° |
| 2026-04-24 11:41 | 43.47047 | -75.80772 | 32426 ft | 455 kts | 233° |
| 2026-04-24 11:41 | 43.44756 | -75.83727 | 32577 ft | 457 kts | 233° |
| 2026-04-24 11:42 | 43.42460 | -75.86687 | 32761 ft | 457 kts | 233° |
| 2026-04-24 11:42 | 43.40134 | -75.89678 | 32987 ft | 457 kts | 233° |
| 2026-04-24 11:42 | 43.37862 | -75.92598 | 33148 ft | 457 kts | 233° |
| 2026-04-24 11:42 | 43.35532 | -75.95595 | 33266 ft | 459 kts | 233° |
| 2026-04-24 11:43 | 43.33215 | -75.98567 | 33431 ft | 460 kts | 233° |
| 2026-04-24 11:43 | 43.30893 | -76.01544 | 33571 ft | 461 kts | 233° |
| 2026-04-24 11:43 | 43.28567 | -76.04522 | 33718 ft | 462 kts | 233° |
| 2026-04-24 11:43 | 43.26245 | -76.07488 | 33854 ft | 463 kts | 232° |
| 2026-04-24 11:44 | 43.23951 | -76.10418 | 33983 ft | 464 kts | 232° |
| 2026-04-24 11:44 | 43.21615 | -76.13398 | 33988 ft | 465 kts | 232° |
| 2026-04-24 11:44 | 43.16811 | -76.19327 | 33990 ft | 473 kts | 228° |
| 2026-04-24 11:45 | 43.11420 | -76.24458 | 33982 ft | 481 kts | 219° |
| 2026-04-24 11:45 | 43.05757 | -76.29063 | 33990 ft | 480 kts | 219° |
| 2026-04-24 11:46 | 43.00172 | -76.33634 | 33985 ft | 481 kts | 219° |
| 2026-04-24 11:46 | 42.94496 | -76.38307 | 33980 ft | 480 kts | 220° |
| 2026-04-24 11:47 | 42.88969 | -76.42864 | 33976 ft | 479 kts | 219° |
| 2026-04-24 11:47 | 42.83469 | -76.47387 | 33970 ft | 479 kts | 219° |
| 2026-04-24 11:48 | 42.77835 | -76.52003 | 33957 ft | 479 kts | 219° |
| 2026-04-24 11:48 | 42.72202 | -76.56607 | 33952 ft | 477 kts | 219° |
| 2026-04-24 11:49 | 42.66538 | -76.61231 | 33962 ft | 478 kts | 219° |
| 2026-04-24 11:49 | 42.61008 | -76.65735 | 33958 ft | 477 kts | 218° |
| 2026-04-24 11:50 | 42.55415 | -76.70283 | 33957 ft | 477 kts | 218° |
| 2026-04-24 11:50 | 42.49772 | -76.74859 | 33958 ft | 477 kts | 218° |
| 2026-04-24 11:51 | 42.44115 | -76.79436 | 33948 ft | 475 kts | 218° |
| 2026-04-24 11:51 | 42.38562 | -76.83918 | 33945 ft | 475 kts | 218° |
| 2026-04-24 11:52 | 42.32906 | -76.88478 | 33942 ft | 474 kts | 218° |
| 2026-04-24 11:52 | 42.27260 | -76.93018 | 33935 ft | 473 kts | 218° |
| 2026-04-24 11:53 | 42.21701 | -76.97476 | 33934 ft | 473 kts | 218° |
| 2026-04-24 11:53 | 42.16131 | -77.01939 | 33936 ft | 473 kts | 218° |
| 2026-04-24 11:54 | 42.10538 | -77.06407 | 33936 ft | 471 kts | 217° |
| 2026-04-24 11:54 | 42.04942 | -77.10870 | 33938 ft | 471 kts | 217° |
| 2026-04-24 11:55 | 41.99345 | -77.15327 | 33938 ft | 470 kts | 217° |
| 2026-04-24 11:55 | 41.93810 | -77.19717 | 33938 ft | 469 kts | 217° |
| 2026-04-24 11:56 | 41.88430 | -77.23980 | 33935 ft | 470 kts | 217° |
| 2026-04-24 11:56 | 41.82835 | -77.28406 | 33933 ft | 470 kts | 217° |
| 2026-04-24 11:57 | 41.77193 | -77.32859 | 33933 ft | 469 kts | 217° |
| 2026-04-24 11:57 | 41.71623 | -77.37244 | 33933 ft | 468 kts | 217° |
| 2026-04-24 11:58 | 41.66007 | -77.41660 | 33928 ft | 469 kts | 217° |
| 2026-04-24 11:58 | 41.60393 | -77.46066 | 33924 ft | 470 kts | 217° |
| 2026-04-24 11:59 | 41.54769 | -77.50468 | 33919 ft | 469 kts | 216° |
| 2026-04-24 11:59 | 41.49137 | -77.54865 | 33918 ft | 469 kts | 217° |
| 2026-04-24 12:00 | 41.43511 | -77.59252 | 33919 ft | 469 kts | 217° |
| 2026-04-24 12:00 | 41.37898 | -77.63617 | 33913 ft | 470 kts | 217° |
| 2026-04-24 12:01 | 41.32456 | -77.67845 | 33909 ft | 470 kts | 216° |
| 2026-04-24 12:01 | 41.26879 | -77.72168 | 33908 ft | 469 kts | 216° |
| 2026-04-24 12:02 | 41.21289 | -77.76492 | 33908 ft | 470 kts | 216° |
| 2026-04-24 12:02 | 41.15667 | -77.80832 | 33904 ft | 469 kts | 216° |
| 2026-04-24 12:03 | 41.10003 | -77.85194 | 33908 ft | 469 kts | 216° |
| 2026-04-24 12:03 | 41.04398 | -77.89505 | 33913 ft | 469 kts | 215° |
| 2026-04-24 12:04 | 40.98738 | -77.93841 | 33912 ft | 470 kts | 214° |
| 2026-04-24 12:04 | 40.92889 | -77.97639 | 33908 ft | 474 kts | 207° |
| 2026-04-24 12:05 | 40.86784 | -78.00430 | 33907 ft | 479 kts | 199° |
| 2026-04-24 12:05 | 40.80284 | -78.02319 | 33908 ft | 482 kts | 194° |
| 2026-04-24 12:06 | 40.73756 | -78.03977 | 33908 ft | 481 kts | 195° |
| 2026-04-24 12:06 | 40.67192 | -78.05664 | 33908 ft | 481 kts | 195° |
| 2026-04-24 12:07 | 40.60800 | -78.07319 | 33908 ft | 481 kts | 195° |
| 2026-04-24 12:07 | 40.54254 | -78.09017 | 33908 ft | 482 kts | 195° |
| 2026-04-24 12:08 | 40.47796 | -78.10687 | 33905 ft | 480 kts | 195° |
| 2026-04-24 12:08 | 40.41368 | -78.12349 | 33906 ft | 480 kts | 195° |
| 2026-04-24 12:09 | 40.34864 | -78.14026 | 33908 ft | 480 kts | 195° |
| 2026-04-24 12:09 | 40.28363 | -78.15700 | 33911 ft | 480 kts | 195° |
| 2026-04-24 12:10 | 40.21867 | -78.17367 | 33910 ft | 479 kts | 195° |
| 2026-04-24 12:11 | 40.12097 | -78.19869 | 33907 ft | 478 kts | 195° |
| 2026-04-24 12:11 | 40.05595 | -78.21532 | 33895 ft | 477 kts | 195° |
| 2026-04-24 12:12 | 39.99265 | -78.23146 | 33892 ft | 477 kts | 195° |
| 2026-04-24 12:12 | 39.92754 | -78.24805 | 33897 ft | 477 kts | 195° |
| 2026-04-24 12:13 | 39.86571 | -78.26373 | 33892 ft | 477 kts | 195° |
| 2026-04-24 12:13 | 39.80938 | -78.27801 | 33893 ft | 476 kts | 195° |
| 2026-04-24 12:14 | 39.74500 | -78.29299 | 33894 ft | 477 kts | 192° |
| 2026-04-24 12:14 | 39.67927 | -78.29911 | 33894 ft | 481 kts | 184° |
| 2026-04-24 12:15 | 39.61238 | -78.29516 | 33896 ft | 483 kts | 179° |
| 2026-04-24 12:15 | 39.54538 | -78.28891 | 33899 ft | 482 kts | 179° |
| 2026-04-24 12:16 | 39.47977 | -78.28297 | 33899 ft | 481 kts | 179° |
| 2026-04-24 12:16 | 39.41414 | -78.27720 | 33900 ft | 481 kts | 179° |
| 2026-04-24 12:17 | 39.34870 | -78.27150 | 33899 ft | 481 kts | 179° |
| 2026-04-24 12:17 | 39.28291 | -78.26578 | 33902 ft | 480 kts | 179° |
| 2026-04-24 12:18 | 39.21775 | -78.26012 | 33902 ft | 480 kts | 179° |
| 2026-04-24 12:18 | 39.15128 | -78.25436 | 33906 ft | 479 kts | 179° |
| 2026-04-24 12:19 | 39.08503 | -78.24864 | 33907 ft | 478 kts | 179° |
| 2026-04-24 12:19 | 39.01917 | -78.24301 | 33908 ft | 478 kts | 179° |
| 2026-04-24 12:20 | 38.95285 | -78.23729 | 33910 ft | 477 kts | 179° |
| 2026-04-24 12:20 | 38.88844 | -78.23176 | 33911 ft | 478 kts | 179° |
| 2026-04-24 12:21 | 38.82480 | -78.22628 | 33915 ft | 479 kts | 179° |
| 2026-04-24 12:21 | 38.75915 | -78.22066 | 33926 ft | 479 kts | 180° |
| 2026-04-24 12:22 | 38.69285 | -78.21500 | 33935 ft | 478 kts | 180° |
| 2026-04-24 12:22 | 38.62714 | -78.20940 | 33935 ft | 478 kts | 180° |
| 2026-04-24 12:23 | 38.56038 | -78.20372 | 33926 ft | 478 kts | 180° |
| 2026-04-24 12:23 | 38.49451 | -78.19813 | 33919 ft | 479 kts | 180° |
| 2026-04-24 12:24 | 38.42854 | -78.19253 | 33917 ft | 478 kts | 180° |
| 2026-04-24 12:24 | 38.36293 | -78.18700 | 33918 ft | 478 kts | 180° |
| 2026-04-24 12:25 | 38.29681 | -78.18141 | 33916 ft | 479 kts | 180° |
| 2026-04-24 12:25 | 38.23093 | -78.17584 | 33917 ft | 479 kts | 180° |
| 2026-04-24 12:26 | 38.16583 | -78.17036 | 33918 ft | 478 kts | 180° |
| 2026-04-24 12:26 | 38.10193 | -78.16498 | 33918 ft | 479 kts | 181° |
| 2026-04-24 12:27 | 38.03608 | -78.15947 | 33919 ft | 478 kts | 181° |
| 2026-04-24 12:27 | 37.97023 | -78.15395 | 33919 ft | 477 kts | 181° |
| 2026-04-24 12:28 | 37.90362 | -78.14838 | 33924 ft | 477 kts | 181° |
| 2026-04-24 12:28 | 37.83936 | -78.14303 | 33923 ft | 476 kts | 181° |
| 2026-04-24 12:29 | 37.77324 | -78.13752 | 33922 ft | 477 kts | 181° |
| 2026-04-24 12:29 | 37.70704 | -78.13200 | 33921 ft | 476 kts | 181° |
| 2026-04-24 12:30 | 37.64086 | -78.12650 | 33924 ft | 476 kts | 181° |
| 2026-04-24 12:30 | 37.57509 | -78.12102 | 33928 ft | 476 kts | 180° |
| 2026-04-24 12:31 | 37.50903 | -78.11529 | 33924 ft | 476 kts | 180° |
| 2026-04-24 12:31 | 37.44323 | -78.10957 | 33926 ft | 476 kts | 180° |
| 2026-04-24 12:32 | 37.37728 | -78.10381 | 33928 ft | 475 kts | 180° |
| 2026-04-24 12:32 | 37.31149 | -78.09809 | 33930 ft | 475 kts | 180° |
| 2026-04-24 12:33 | 37.24524 | -78.09235 | 33929 ft | 475 kts | 180° |
| 2026-04-24 12:33 | 37.17936 | -78.08664 | 33933 ft | 474 kts | 180° |
| 2026-04-24 12:34 | 37.11354 | -78.08095 | 33933 ft | 474 kts | 180° |
| 2026-04-24 12:34 | 37.04777 | -78.07527 | 33933 ft | 474 kts | 180° |
| 2026-04-24 12:35 | 36.98187 | -78.06960 | 33933 ft | 474 kts | 180° |
| 2026-04-24 12:35 | 36.91655 | -78.06399 | 33938 ft | 472 kts | 180° |
| 2026-04-24 12:36 | 36.85557 | -78.05874 | 33944 ft | 471 kts | 180° |
| 2026-04-24 12:36 | 36.79107 | -78.05322 | 33943 ft | 472 kts | 180° |
| 2026-04-24 12:37 | 36.72547 | -78.04760 | 33948 ft | 473 kts | 180° |
| 2026-04-24 12:37 | 36.66008 | -78.04202 | 33948 ft | 472 kts | 180° |
| 2026-04-24 12:38 | 36.59471 | -78.03643 | 33948 ft | 472 kts | 180° |
| 2026-04-24 12:38 | 36.52948 | -78.03086 | 33942 ft | 471 kts | 180° |
| 2026-04-24 12:39 | 36.39895 | -78.01975 | 33936 ft | 471 kts | 180° |
| 2026-04-24 12:40 | 36.33370 | -78.01424 | 33936 ft | 471 kts | 180° |
| 2026-04-24 12:40 | 36.26837 | -78.00877 | 33933 ft | 471 kts | 180° |
| 2026-04-24 12:41 | 36.20300 | -78.00327 | 33941 ft | 470 kts | 180° |
| 2026-04-24 12:41 | 36.13803 | -77.99779 | 33940 ft | 470 kts | 179° |
| 2026-04-24 12:42 | 36.07298 | -77.99232 | 33947 ft | 470 kts | 179° |
| 2026-04-24 12:42 | 36.00763 | -77.98684 | 33935 ft | 471 kts | 179° |
| 2026-04-24 12:43 | 35.94277 | -77.98140 | 33943 ft | 470 kts | 179° |
| 2026-04-24 12:43 | 35.87807 | -77.97598 | 33941 ft | 469 kts | 179° |
| 2026-04-24 12:44 | 35.81318 | -77.97056 | 33946 ft | 468 kts | 179° |
| 2026-04-24 12:44 | 35.74848 | -77.96515 | 33945 ft | 468 kts | 179° |
| 2026-04-24 12:45 | 35.68340 | -77.95972 | 33946 ft | 469 kts | 179° |
| 2026-04-24 12:45 | 35.61915 | -77.95438 | 33951 ft | 469 kts | 179° |
| 2026-04-24 12:46 | 35.55345 | -77.94892 | 33960 ft | 469 kts | 179° |
| 2026-04-24 12:46 | 35.48862 | -77.94353 | 33963 ft | 468 kts | 179° |
| 2026-04-24 12:47 | 35.42343 | -77.93810 | 33970 ft | 467 kts | 179° |
| 2026-04-24 12:47 | 35.35920 | -77.93278 | 33976 ft | 467 kts | 179° |
| 2026-04-24 12:48 | 35.29415 | -77.93005 | 33977 ft | 465 kts | 184° |
| 2026-04-24 12:48 | 35.22964 | -77.93243 | 33975 ft | 465 kts | 185° |
| 2026-04-24 12:49 | 35.16486 | -77.93494 | 33976 ft | 466 kts | 185° |
| 2026-04-24 12:49 | 35.10022 | -77.93736 | 33979 ft | 465 kts | 185° |
| 2026-04-24 12:50 | 35.03549 | -77.93977 | 33991 ft | 464 kts | 184° |
| 2026-04-24 12:50 | 34.97108 | -77.94213 | 33991 ft | 464 kts | 184° |
| 2026-04-24 12:51 | 34.90662 | -77.94450 | 33995 ft | 464 kts | 184° |
| 2026-04-24 12:51 | 34.84406 | -77.94680 | 33995 ft | 464 kts | 184° |
| 2026-04-24 12:52 | 34.77958 | -77.94916 | 33997 ft | 465 kts | 184° |
| 2026-04-24 12:52 | 34.71503 | -77.95152 | 33998 ft | 465 kts | 184° |
| 2026-04-24 12:53 | 34.65020 | -77.95390 | 33997 ft | 465 kts | 184° |
| 2026-04-24 12:53 | 34.58568 | -77.95624 | 33997 ft | 465 kts | 184° |
| 2026-04-24 12:54 | 34.52138 | -77.95857 | 33993 ft | 464 kts | 184° |
| 2026-04-24 12:54 | 34.45662 | -77.96094 | 33994 ft | 465 kts | 184° |
| 2026-04-24 12:55 | 34.39192 | -77.96328 | 33992 ft | 465 kts | 184° |
| 2026-04-24 12:55 | 34.32737 | -77.96561 | 34001 ft | 465 kts | 184° |
| 2026-04-24 12:56 | 34.26275 | -77.96795 | 34001 ft | 464 kts | 184° |
| 2026-04-24 12:56 | 34.19873 | -77.97026 | 34005 ft | 464 kts | 184° |
| 2026-04-24 12:57 | 34.13418 | -77.97259 | 34008 ft | 464 kts | 184° |
| 2026-04-24 12:57 | 34.06926 | -77.97491 | 34009 ft | 464 kts | 184° |
| 2026-04-24 12:58 | 34.00477 | -77.97720 | 34012 ft | 464 kts | 183° |
| 2026-04-24 12:58 | 33.94065 | -77.97949 | 34016 ft | 464 kts | 183° |
| 2026-04-24 12:59 | 33.87603 | -77.98127 | 34015 ft | 465 kts | 181° |
| 2026-04-24 12:59 | 33.81145 | -77.97804 | 34015 ft | 465 kts | 178° |
| 2026-04-24 13:00 | 33.74680 | -77.97405 | 34012 ft | 465 kts | 178° |
| 2026-04-24 13:00 | 33.68248 | -77.97011 | 34011 ft | 465 kts | 178° |
| 2026-04-24 13:01 | 33.61798 | -77.96618 | 34010 ft | 465 kts | 178° |
| 2026-04-24 13:01 | 33.55318 | -77.96226 | 34009 ft | 465 kts | 178° |
| 2026-04-24 13:02 | 33.48880 | -77.95840 | 34010 ft | 465 kts | 178° |
| 2026-04-24 13:02 | 33.42399 | -77.95451 | 34010 ft | 465 kts | 178° |
| 2026-04-24 13:03 | 33.35944 | -77.95061 | 34010 ft | 465 kts | 178° |
| 2026-04-24 13:03 | 33.29492 | -77.94672 | 34010 ft | 464 kts | 178° |
| 2026-04-24 13:04 | 33.23094 | -77.94293 | 34009 ft | 464 kts | 178° |
| 2026-04-24 13:04 | 33.16616 | -77.93906 | 34010 ft | 464 kts | 178° |
| 2026-04-24 13:05 | 33.10186 | -77.93522 | 34010 ft | 464 kts | 178° |
| 2026-04-24 13:05 | 33.03774 | -77.93138 | 34010 ft | 464 kts | 178° |
| 2026-04-24 13:06 | 32.97343 | -77.92760 | 34011 ft | 463 kts | 178° |
| 2026-04-24 13:06 | 32.90892 | -77.92380 | 34024 ft | 463 kts | 178° |
| 2026-04-24 13:07 | 32.84484 | -77.92000 | 34028 ft | 463 kts | 178° |
| 2026-04-24 13:07 | 32.78058 | -77.91618 | 34030 ft | 463 kts | 178° |
| 2026-04-24 13:08 | 32.71656 | -77.91239 | 34031 ft | 463 kts | 178° |
| 2026-04-24 13:08 | 32.65186 | -77.90855 | 34029 ft | 463 kts | 178° |
| 2026-04-24 13:09 | 32.55577 | -77.90287 | 34031 ft | 462 kts | 178° |
| 2026-04-24 13:09 | 32.49155 | -77.89906 | 34032 ft | 462 kts | 178° |
| 2026-04-24 13:10 | 32.42734 | -77.89528 | 34032 ft | 462 kts | 178° |
| 2026-04-24 13:10 | 32.36312 | -77.89153 | 34031 ft | 462 kts | 177° |
| 2026-04-24 13:11 | 32.29914 | -77.88779 | 34034 ft | 462 kts | 177° |
| 2026-04-24 13:11 | 32.23456 | -77.88397 | 34030 ft | 462 kts | 177° |
| 2026-04-24 13:12 | 32.17062 | -77.88024 | 34031 ft | 462 kts | 178° |
| 2026-04-24 13:12 | 32.10635 | -77.87652 | 34033 ft | 461 kts | 177° |
| 2026-04-24 13:13 | 32.04246 | -77.87279 | 34032 ft | 461 kts | 177° |
| 2026-04-24 13:13 | 31.97845 | -77.86904 | 34032 ft | 461 kts | 177° |
| 2026-04-24 13:14 | 31.91544 | -77.86619 | 34032 ft | 461 kts | 180° |
| 2026-04-24 13:14 | 31.85107 | -77.87048 | 34036 ft | 461 kts | 187° |
| 2026-04-24 13:15 | 31.78769 | -77.88059 | 34038 ft | 462 kts | 188° |
| 2026-04-24 13:15 | 31.72413 | -77.89094 | 34040 ft | 461 kts | 188° |
| 2026-04-24 13:16 | 31.66103 | -77.90112 | 34039 ft | 461 kts | 188° |
| 2026-04-24 13:16 | 31.59739 | -77.91132 | 34041 ft | 460 kts | 188° |
| 2026-04-24 13:17 | 31.53409 | -77.92145 | 34045 ft | 460 kts | 188° |
| 2026-04-24 13:17 | 31.47079 | -77.93156 | 34048 ft | 461 kts | 188° |
| 2026-04-24 13:18 | 31.40694 | -77.94175 | 34056 ft | 462 kts | 188° |
| 2026-04-24 13:18 | 31.34350 | -77.95188 | 34053 ft | 461 kts | 188° |
| 2026-04-24 13:19 | 31.28036 | -77.96195 | 34057 ft | 460 kts | 188° |
| 2026-04-24 13:19 | 31.21699 | -77.97201 | 34064 ft | 460 kts | 188° |
| 2026-04-24 13:20 | 31.15390 | -77.98202 | 34066 ft | 460 kts | 188° |
| 2026-04-24 13:20 | 31.09030 | -77.99210 | 34066 ft | 461 kts | 188° |
| 2026-04-24 13:21 | 31.02668 | -78.00221 | 34071 ft | 461 kts | 188° |
| 2026-04-24 13:21 | 30.96308 | -78.01230 | 34069 ft | 461 kts | 188° |
| 2026-04-24 13:22 | 30.89978 | -78.02231 | 34074 ft | 461 kts | 188° |
| 2026-04-24 13:22 | 30.83669 | -78.03227 | 34073 ft | 460 kts | 187° |
| 2026-04-24 13:23 | 30.77324 | -78.04225 | 34078 ft | 459 kts | 187° |
| 2026-04-24 13:23 | 30.70995 | -78.05219 | 34074 ft | 460 kts | 188° |
| 2026-04-24 13:24 | 30.64713 | -78.06206 | 34071 ft | 460 kts | 188° |
| 2026-04-24 13:24 | 30.58328 | -78.07207 | 34070 ft | 460 kts | 188° |
| 2026-04-24 13:25 | 30.51996 | -78.08199 | 34067 ft | 460 kts | 187° |
| 2026-04-24 13:25 | 30.45681 | -78.09186 | 34072 ft | 459 kts | 187° |
| 2026-04-24 13:26 | 30.39336 | -78.10182 | 34072 ft | 459 kts | 188° |
| 2026-04-24 13:26 | 30.33035 | -78.11202 | 34071 ft | 458 kts | 188° |
| 2026-04-24 13:27 | 30.26754 | -78.12218 | 34072 ft | 459 kts | 188° |
| 2026-04-24 13:27 | 30.20400 | -78.13241 | 34078 ft | 460 kts | 188° |
| 2026-04-24 13:28 | 30.14069 | -78.14259 | 34066 ft | 460 kts | 188° |
| 2026-04-24 13:28 | 30.07804 | -78.15265 | 34078 ft | 459 kts | 188° |
| 2026-04-24 13:29 | 30.01439 | -78.16283 | 34068 ft | 459 kts | 188° |
| 2026-04-24 13:29 | 29.95127 | -78.17291 | 34071 ft | 459 kts | 188° |
| 2026-04-24 13:30 | 29.88828 | -78.18295 | 34054 ft | 459 kts | 188° |
| 2026-04-24 13:30 | 29.82519 | -78.19302 | 34062 ft | 460 kts | 188° |
| 2026-04-24 13:31 | 29.76169 | -78.20314 | 34065 ft | 461 kts | 188° |
| 2026-04-24 13:31 | 29.69779 | -78.21330 | 34068 ft | 461 kts | 188° |
| 2026-04-24 13:32 | 29.63461 | -78.22334 | 34066 ft | 461 kts | 188° |
| 2026-04-24 13:32 | 29.57116 | -78.23341 | 34068 ft | 459 kts | 188° |
| 2026-04-24 13:33 | 29.50776 | -78.24345 | 34072 ft | 459 kts | 188° |
| 2026-04-24 13:33 | 29.44555 | -78.25330 | 34066 ft | 459 kts | 188° |
| 2026-04-24 13:34 | 29.38168 | -78.26338 | 34060 ft | 458 kts | 189° |
| 2026-04-24 13:34 | 29.31887 | -78.27329 | 34066 ft | 458 kts | 189° |
| 2026-04-24 13:35 | 29.25573 | -78.28324 | 34064 ft | 457 kts | 189° |
| 2026-04-24 13:35 | 29.19294 | -78.29315 | 34060 ft | 455 kts | 189° |
| 2026-04-24 13:36 | 29.13029 | -78.30301 | 34062 ft | 455 kts | 189° |
| 2026-04-24 13:36 | 29.06774 | -78.31286 | 34063 ft | 452 kts | 189° |
| 2026-04-24 13:37 | 29.00535 | -78.32265 | 34056 ft | 453 kts | 189° |
| 2026-04-24 13:37 | 28.94284 | -78.33243 | 34067 ft | 452 kts | 189° |
| 2026-04-24 13:38 | 28.88112 | -78.34206 | 34062 ft | 452 kts | 189° |
| 2026-04-24 13:38 | 28.81969 | -78.35167 | 34059 ft | 453 kts | 190° |
| 2026-04-24 13:39 | 28.75683 | -78.36149 | 34061 ft | 452 kts | 190° |
| 2026-04-24 13:39 | 28.69437 | -78.37122 | 34050 ft | 454 kts | 190° |
| 2026-04-24 13:40 | 28.63216 | -78.38094 | 34059 ft | 453 kts | 190° |
| 2026-04-24 13:40 | 28.56950 | -78.39065 | 34046 ft | 452 kts | 191° |
| 2026-04-24 13:41 | 28.50752 | -78.40030 | 34056 ft | 450 kts | 191° |
| 2026-04-24 13:41 | 28.44583 | -78.40987 | 34051 ft | 450 kts | 191° |
| 2026-04-24 13:42 | 28.38345 | -78.41954 | 34038 ft | 450 kts | 191° |
| 2026-04-24 13:42 | 28.32142 | -78.42914 | 34051 ft | 449 kts | 191° |
| 2026-04-24 13:43 | 28.25998 | -78.43864 | 34041 ft | 448 kts | 191° |
| 2026-04-24 13:43 | 28.19814 | -78.44823 | 34050 ft | 450 kts | 191° |
| 2026-04-24 13:44 | 28.13609 | -78.45780 | 34035 ft | 449 kts | 192° |
| 2026-04-24 13:44 | 28.07476 | -78.46724 | 34033 ft | 448 kts | 192° |
| 2026-04-24 13:45 | 28.01334 | -78.47668 | 34032 ft | 448 kts | 192° |
| 2026-04-24 13:45 | 27.95152 | -78.48619 | 34038 ft | 447 kts | 192° |
| 2026-04-24 13:46 | 27.89000 | -78.49565 | 34041 ft | 446 kts | 192° |
| 2026-04-24 13:46 | 27.83021 | -78.50481 | 34049 ft | 447 kts | 192° |
| 2026-04-24 13:47 | 27.76912 | -78.51417 | 34044 ft | 447 kts | 192° |
| 2026-04-24 13:47 | 27.70775 | -78.52357 | 34044 ft | 447 kts | 192° |
| 2026-04-24 13:48 | 27.64622 | -78.53298 | 34045 ft | 447 kts | 192° |
| 2026-04-24 13:48 | 27.58460 | -78.54237 | 34038 ft | 447 kts | 192° |
| 2026-04-24 13:49 | 27.52290 | -78.55177 | 34045 ft | 447 kts | 192° |
| 2026-04-24 13:49 | 27.46172 | -78.56110 | 34033 ft | 447 kts | 192° |
| 2026-04-24 13:50 | 27.39989 | -78.57055 | 34045 ft | 447 kts | 192° |
| 2026-04-24 13:50 | 27.33849 | -78.57989 | 34044 ft | 447 kts | 192° |
| 2026-04-24 13:51 | 27.27673 | -78.58927 | 34037 ft | 448 kts | 192° |
| 2026-04-24 13:51 | 27.21516 | -78.59862 | 34041 ft | 448 kts | 192° |
| 2026-04-24 13:52 | 27.15389 | -78.60788 | 34037 ft | 447 kts | 193° |
| 2026-04-24 13:52 | 27.09206 | -78.61725 | 34033 ft | 447 kts | 193° |
| 2026-04-24 13:53 | 27.03064 | -78.62654 | 34037 ft | 447 kts | 192° |
| 2026-04-24 13:53 | 26.96910 | -78.63584 | 34032 ft | 446 kts | 192° |
| 2026-04-24 13:54 | 26.90758 | -78.64512 | 34039 ft | 448 kts | 192° |
| 2026-04-24 13:54 | 26.84764 | -78.65413 | 34035 ft | 446 kts | 192° |
| 2026-04-24 13:55 | 26.78829 | -78.66305 | 34031 ft | 447 kts | 192° |
| 2026-04-24 13:55 | 26.72730 | -78.67223 | 34040 ft | 448 kts | 192° |
| 2026-04-24 13:56 | 26.66602 | -78.68142 | 34040 ft | 447 kts | 192° |
| 2026-04-24 13:56 | 26.60451 | -78.69062 | 34038 ft | 447 kts | 192° |
| 2026-04-24 13:57 | 26.54279 | -78.69988 | 34046 ft | 447 kts | 192° |
| 2026-04-24 13:57 | 26.48126 | -78.70906 | 34040 ft | 447 kts | 192° |
| 2026-04-24 13:58 | 26.41957 | -78.71824 | 34040 ft | 447 kts | 192° |
| 2026-04-24 13:58 | 26.35868 | -78.72728 | 34037 ft | 447 kts | 192° |
| 2026-04-24 13:59 | 26.29736 | -78.73637 | 34035 ft | 446 kts | 192° |
| 2026-04-24 13:59 | 26.23610 | -78.74542 | 34033 ft | 446 kts | 192° |
| 2026-04-24 14:00 | 26.17444 | -78.75454 | 34031 ft | 446 kts | 192° |
| 2026-04-24 14:00 | 26.11313 | -78.76359 | 34029 ft | 446 kts | 192° |
| 2026-04-24 14:01 | 26.05229 | -78.77256 | 34030 ft | 446 kts | 192° |
| 2026-04-24 14:01 | 25.99104 | -78.78159 | 34029 ft | 445 kts | 192° |
| 2026-04-24 14:02 | 25.92976 | -78.79060 | 34028 ft | 444 kts | 192° |
| 2026-04-24 14:02 | 25.86871 | -78.79958 | 34028 ft | 444 kts | 192° |
| 2026-04-24 14:03 | 25.80739 | -78.80860 | 34029 ft | 444 kts | 192° |
| 2026-04-24 14:03 | 25.74711 | -78.81744 | 34027 ft | 443 kts | 192° |
| 2026-04-24 14:04 | 25.68594 | -78.82639 | 34025 ft | 442 kts | 192° |
| 2026-04-24 14:04 | 25.62525 | -78.83529 | 34023 ft | 442 kts | 192° |
| 2026-04-24 14:05 | 25.56428 | -78.84420 | 34022 ft | 441 kts | 192° |
| 2026-04-24 14:05 | 25.50366 | -78.85307 | 34023 ft | 440 kts | 192° |
| 2026-04-24 14:06 | 25.44321 | -78.86189 | 34022 ft | 440 kts | 192° |
| 2026-04-24 14:06 | 25.38295 | -78.87067 | 34018 ft | 439 kts | 192° |
| 2026-04-24 14:07 | 25.32263 | -78.87947 | 34012 ft | 438 kts | 192° |
| 2026-04-24 14:07 | 25.26248 | -78.88824 | 34012 ft | 438 kts | 192° |
| 2026-04-24 14:08 | 25.20243 | -78.89696 | 34012 ft | 437 kts | 192° |
| 2026-04-24 14:08 | 25.14223 | -78.90570 | 34012 ft | 436 kts | 192° |
| 2026-04-24 14:09 | 25.08263 | -78.91435 | 34011 ft | 435 kts | 192° |
| 2026-04-24 14:09 | 25.02284 | -78.92300 | 34011 ft | 434 kts | 192° |
| 2026-04-24 14:10 | 24.96305 | -78.93167 | 34016 ft | 433 kts | 192° |
| 2026-04-24 14:10 | 24.90306 | -78.94037 | 34011 ft | 433 kts | 192° |
| 2026-04-24 14:11 | 24.84420 | -78.94888 | 34020 ft | 432 kts | 192° |
| 2026-04-24 14:12 | 24.75600 | -78.96160 | 34013 ft | 432 kts | 192° |
| 2026-04-24 14:12 | 24.69638 | -78.97021 | 34017 ft | 432 kts | 192° |
| 2026-04-24 14:13 | 24.63727 | -78.97871 | 34014 ft | 432 kts | 192° |
| 2026-04-24 14:13 | 24.57730 | -78.98736 | 34013 ft | 432 kts | 192° |
| 2026-04-24 14:14 | 24.51809 | -78.99587 | 34017 ft | 433 kts | 192° |
| 2026-04-24 14:14 | 24.42844 | -79.00874 | 34015 ft | 432 kts | 192° |
| 2026-04-24 14:15 | 24.36924 | -79.01723 | 34012 ft | 432 kts | 192° |
| 2026-04-24 14:15 | 24.31029 | -79.02567 | 34016 ft | 432 kts | 191° |
| 2026-04-24 14:16 | 24.25080 | -79.03416 | 34017 ft | 432 kts | 192° |
| 2026-04-24 14:17 | 24.16129 | -79.04694 | 34017 ft | 432 kts | 192° |
| 2026-04-24 14:17 | 24.07206 | -79.05967 | 34014 ft | 431 kts | 191° |
| 2026-04-24 14:18 | 24.01311 | -79.06776 | 34012 ft | 431 kts | 190° |
| 2026-04-24 14:18 | 23.95372 | -79.07109 | 34009 ft | 434 kts | 186° |
| 2026-04-24 14:19 | 23.89429 | -79.07246 | 34003 ft | 435 kts | 186° |
| 2026-04-24 14:19 | 23.83494 | -79.07379 | 33996 ft | 436 kts | 185° |
| 2026-04-24 14:20 | 23.77600 | -79.07510 | 34002 ft | 436 kts | 186° |
| 2026-04-24 14:20 | 23.71513 | -79.07644 | 33993 ft | 436 kts | 186° |
| 2026-04-24 14:21 | 23.65473 | -79.07778 | 33997 ft | 437 kts | 185° |
| 2026-04-24 14:21 | 23.59469 | -79.07912 | 33992 ft | 435 kts | 185° |
| 2026-04-24 14:22 | 23.53431 | -79.08047 | 34000 ft | 435 kts | 185° |
| 2026-04-24 14:23 | 23.44356 | -79.08249 | 33997 ft | 436 kts | 185° |
| 2026-04-24 14:23 | 23.38334 | -79.08382 | 33991 ft | 437 kts | 186° |
| 2026-04-24 14:24 | 23.32264 | -79.08519 | 33991 ft | 437 kts | 185° |
| 2026-04-24 14:24 | 23.26183 | -79.08652 | 33986 ft | 438 kts | 185° |
| 2026-04-24 14:25 | 23.20109 | -79.08788 | 33994 ft | 438 kts | 185° |
| 2026-04-24 14:25 | 23.14046 | -79.08920 | 33985 ft | 439 kts | 186° |
| 2026-04-24 14:26 | 23.08206 | -79.09050 | 34015 ft | 442 kts | 185° |
| 2026-04-24 14:26 | 23.05341 | -79.09115 | 34206 ft | 442 kts | 185° |
| 2026-04-24 14:26 | 23.02303 | -79.09180 | 34490 ft | 440 kts | 186° |
| 2026-04-24 14:26 | 22.99230 | -79.09246 | 34779 ft | 438 kts | 186° |
| 2026-04-24 14:27 | 22.96215 | -79.09311 | 34985 ft | 437 kts | 186° |
| 2026-04-24 14:27 | 22.90205 | -79.09442 | 34973 ft | 435 kts | 186° |
| 2026-04-24 14:28 | 22.84255 | -79.09574 | 34990 ft | 434 kts | 186° |
| 2026-04-24 14:28 | 22.78280 | -79.09705 | 34978 ft | 434 kts | 186° |
| 2026-04-24 14:29 | 22.72240 | -79.09834 | 34973 ft | 433 kts | 186° |
| 2026-04-24 14:29 | 22.66283 | -79.09965 | 34980 ft | 432 kts | 186° |
| 2026-04-24 14:30 | 22.60328 | -79.10100 | 34973 ft | 432 kts | 186° |
| 2026-04-24 14:30 | 22.54311 | -79.10233 | 34977 ft | 433 kts | 186° |
| 2026-04-24 14:31 | 22.48304 | -79.10364 | 34972 ft | 432 kts | 186° |
| 2026-04-24 14:31 | 22.42312 | -79.10493 | 34974 ft | 431 kts | 186° |
| 2026-04-24 14:32 | 22.36296 | -79.10623 | 34977 ft | 431 kts | 186° |
| 2026-04-24 14:32 | 22.30330 | -79.10753 | 34986 ft | 431 kts | 186° |
| 2026-04-24 14:33 | 22.24316 | -79.10880 | 34981 ft | 430 kts | 187° |
| 2026-04-24 14:33 | 22.18337 | -79.11007 | 34980 ft | 430 kts | 187° |
| 2026-04-24 14:34 | 22.12335 | -79.11136 | 34973 ft | 429 kts | 187° |
| 2026-04-24 14:34 | 22.06396 | -79.11268 | 34987 ft | 428 kts | 187° |
| 2026-04-24 14:35 | 22.00434 | -79.11398 | 34977 ft | 428 kts | 187° |
| 2026-04-24 14:35 | 21.94450 | -79.11523 | 34981 ft | 428 kts | 187° |
| 2026-04-24 14:36 | 21.88521 | -79.11651 | 34988 ft | 428 kts | 187° |
| 2026-04-24 14:36 | 21.82587 | -79.11784 | 34987 ft | 428 kts | 187° |
| 2026-04-24 14:37 | 21.76712 | -79.11916 | 34986 ft | 428 kts | 187° |
| 2026-04-24 14:37 | 21.70782 | -79.12045 | 34986 ft | 427 kts | 187° |
| 2026-04-24 14:38 | 21.64822 | -79.12184 | 34985 ft | 427 kts | 187° |
| 2026-04-24 14:38 | 21.58898 | -79.12320 | 34984 ft | 427 kts | 187° |
| 2026-04-24 14:39 | 21.52950 | -79.12453 | 34980 ft | 427 kts | 187° |
| 2026-04-24 14:39 | 21.47181 | -79.12582 | 34976 ft | 426 kts | 187° |
| 2026-04-24 14:40 | 21.41229 | -79.12713 | 34979 ft | 426 kts | 187° |
| 2026-04-24 14:40 | 21.35304 | -79.12845 | 34975 ft | 427 kts | 187° |
| 2026-04-24 14:41 | 21.29390 | -79.12975 | 34976 ft | 427 kts | 187° |
| 2026-04-24 14:41 | 21.23477 | -79.13105 | 34978 ft | 426 kts | 187° |
| 2026-04-24 14:42 | 21.17691 | -79.13239 | 34981 ft | 426 kts | 187° |
| 2026-04-24 14:42 | 21.11871 | -79.13374 | 34981 ft | 426 kts | 187° |
| 2026-04-24 14:43 | 21.05947 | -79.13507 | 34987 ft | 425 kts | 187° |
| 2026-04-24 14:43 | 21.00002 | -79.13641 | 34989 ft | 426 kts | 187° |
| 2026-04-24 14:44 | 20.94070 | -79.13773 | 34978 ft | 425 kts | 187° |
| 2026-04-24 14:44 | 20.88225 | -79.13903 | 34984 ft | 426 kts | 187° |
| 2026-04-24 14:45 | 20.82323 | -79.14033 | 34976 ft | 426 kts | 187° |
| 2026-04-24 14:45 | 20.76404 | -79.14167 | 34977 ft | 425 kts | 187° |
| 2026-04-24 14:46 | 20.70502 | -79.14298 | 34977 ft | 425 kts | 187° |
| 2026-04-24 14:46 | 20.64622 | -79.14429 | 34982 ft | 426 kts | 187° |
| 2026-04-24 14:47 | 20.58733 | -79.14558 | 34973 ft | 425 kts | 188° |
| 2026-04-24 14:47 | 20.52846 | -79.14689 | 34977 ft | 423 kts | 187° |
| 2026-04-24 14:48 | 20.46942 | -79.14819 | 34968 ft | 423 kts | 188° |
| 2026-04-24 14:48 | 20.41064 | -79.14949 | 34972 ft | 423 kts | 188° |
| 2026-04-24 14:49 | 20.35225 | -79.15076 | 34964 ft | 422 kts | 188° |
| 2026-04-24 14:49 | 20.29353 | -79.15208 | 34967 ft | 421 kts | 188° |
| 2026-04-24 14:50 | 20.23776 | -79.15330 | 34965 ft | 421 kts | 188° |
| 2026-04-24 14:50 | 20.17905 | -79.15459 | 34968 ft | 421 kts | 188° |
| 2026-04-24 14:51 | 20.12056 | -79.15587 | 34965 ft | 421 kts | 188° |
| 2026-04-24 14:51 | 20.06226 | -79.15713 | 34963 ft | 421 kts | 188° |
| 2026-04-24 14:52 | 20.00332 | -79.15840 | 34969 ft | 421 kts | 188° |
| 2026-04-24 14:52 | 19.94504 | -79.16032 | 34967 ft | 420 kts | 189° |
| 2026-04-24 14:53 | 19.88682 | -79.16247 | 34966 ft | 419 kts | 189° |
| 2026-04-24 14:53 | 19.82844 | -79.16457 | 34964 ft | 420 kts | 189° |
| 2026-04-24 14:54 | 19.76996 | -79.16663 | 34965 ft | 420 kts | 189° |
| 2026-04-24 14:54 | 19.71136 | -79.16868 | 34969 ft | 421 kts | 189° |
| 2026-04-24 14:55 | 19.65298 | -79.17073 | 34962 ft | 419 kts | 189° |
| 2026-04-24 14:55 | 19.59472 | -79.17274 | 34965 ft | 420 kts | 189° |
| 2026-04-24 14:56 | 19.53617 | -79.17481 | 34966 ft | 421 kts | 189° |
| 2026-04-24 14:56 | 19.47785 | -79.17683 | 34966 ft | 421 kts | 189° |
| 2026-04-24 14:57 | 19.41896 | -79.17887 | 34968 ft | 421 kts | 189° |
| 2026-04-24 14:57 | 19.36025 | -79.18091 | 34966 ft | 422 kts | 189° |
| 2026-04-24 14:58 | 19.30145 | -79.18295 | 34967 ft | 422 kts | 189° |
| 2026-04-24 14:58 | 19.24291 | -79.18497 | 34966 ft | 421 kts | 189° |
| 2026-04-24 14:59 | 19.18443 | -79.18698 | 34967 ft | 421 kts | 189° |
| 2026-04-24 14:59 | 19.12564 | -79.18904 | 34967 ft | 422 kts | 189° |
| 2026-04-24 15:00 | 19.06674 | -79.19107 | 34963 ft | 421 kts | 189° |
| 2026-04-24 15:00 | 19.00849 | -79.19308 | 34961 ft | 421 kts | 189° |
| 2026-04-24 15:01 | 18.94948 | -79.19514 | 34965 ft | 422 kts | 189° |
| 2026-04-24 15:01 | 18.89115 | -79.19714 | 34960 ft | 422 kts | 189° |
| 2026-04-24 15:02 | 18.83241 | -79.19918 | 34960 ft | 422 kts | 189° |
| 2026-04-24 15:02 | 18.77370 | -79.20119 | 34965 ft | 421 kts | 189° |
| 2026-04-24 15:03 | 18.71506 | -79.20321 | 34962 ft | 422 kts | 189° |
| 2026-04-24 15:03 | 18.65624 | -79.20524 | 34965 ft | 422 kts | 189° |
| 2026-04-24 15:04 | 18.59759 | -79.20726 | 34967 ft | 422 kts | 189° |
| 2026-04-24 15:04 | 18.53888 | -79.20927 | 34962 ft | 421 kts | 189° |
| 2026-04-24 15:05 | 18.48014 | -79.21130 | 34962 ft | 421 kts | 189° |
| 2026-04-24 15:05 | 18.42119 | -79.21331 | 34967 ft | 422 kts | 189° |
| 2026-04-24 15:06 | 18.36278 | -79.21531 | 34966 ft | 422 kts | 189° |
| 2026-04-24 15:06 | 18.30399 | -79.21733 | 34966 ft | 421 kts | 189° |
| 2026-04-24 15:07 | 18.24502 | -79.21935 | 34966 ft | 423 kts | 189° |
| 2026-04-24 15:07 | 18.18638 | -79.22136 | 34962 ft | 423 kts | 189° |
| 2026-04-24 15:08 | 18.12722 | -79.22339 | 34964 ft | 423 kts | 189° |
| 2026-04-24 15:08 | 18.06837 | -79.22540 | 34964 ft | 425 kts | 189° |
| 2026-04-24 15:09 | 18.00894 | -79.22742 | 34963 ft | 424 kts | 189° |
| 2026-04-24 15:09 | 17.94999 | -79.22943 | 34968 ft | 424 kts | 189° |
| 2026-04-24 15:10 | 17.89082 | -79.23144 | 34966 ft | 424 kts | 189° |
| 2026-04-24 15:10 | 17.83190 | -79.23347 | 34967 ft | 426 kts | 189° |
| 2026-04-24 15:11 | 17.77254 | -79.23549 | 34958 ft | 426 kts | 189° |
| 2026-04-24 15:11 | 17.71350 | -79.23749 | 34948 ft | 425 kts | 189° |
| 2026-04-24 15:12 | 17.65447 | -79.23951 | 34949 ft | 425 kts | 189° |
| 2026-04-24 15:12 | 17.56548 | -79.24254 | 34953 ft | 426 kts | 189° |
| 2026-04-24 15:13 | 17.50628 | -79.24455 | 34951 ft | 426 kts | 189° |
| 2026-04-24 15:13 | 17.44681 | -79.24656 | 34952 ft | 426 kts | 189° |
| 2026-04-24 15:14 | 17.38757 | -79.24857 | 34957 ft | 427 kts | 189° |
| 2026-04-24 15:14 | 17.32760 | -79.25061 | 34956 ft | 428 kts | 189° |
| 2026-04-24 15:15 | 17.26829 | -79.25262 | 34958 ft | 428 kts | 189° |
| 2026-04-24 15:15 | 17.20862 | -79.25465 | 34958 ft | 429 kts | 189° |
| 2026-04-24 15:16 | 17.14880 | -79.25667 | 34959 ft | 428 kts | 189° |
| 2026-04-24 15:16 | 17.08906 | -79.25869 | 34962 ft | 429 kts | 189° |
| 2026-04-24 15:17 | 17.02947 | -79.26070 | 34963 ft | 429 kts | 189° |
| 2026-04-24 15:17 | 16.96950 | -79.26274 | 34959 ft | 430 kts | 189° |
| 2026-04-24 15:18 | 16.90970 | -79.26475 | 34961 ft | 430 kts | 189° |
| 2026-04-24 15:18 | 16.85023 | -79.26675 | 34960 ft | 430 kts | 189° |
| 2026-04-24 15:19 | 16.78998 | -79.26878 | 34961 ft | 431 kts | 189° |
| 2026-04-24 15:19 | 16.73016 | -79.27080 | 34962 ft | 430 kts | 189° |
| 2026-04-24 15:20 | 16.67013 | -79.27282 | 34961 ft | 430 kts | 189° |
| 2026-04-24 15:20 | 16.61037 | -79.27483 | 34963 ft | 430 kts | 189° |
| 2026-04-24 15:21 | 16.55059 | -79.27685 | 34964 ft | 430 kts | 189° |
| 2026-04-24 15:21 | 16.49050 | -79.27886 | 34967 ft | 431 kts | 189° |
| 2026-04-24 15:22 | 16.43052 | -79.28088 | 34966 ft | 431 kts | 189° |
| 2026-04-24 15:23 | 16.34080 | -79.28387 | 34966 ft | 430 kts | 189° |
| 2026-04-24 15:23 | 16.25058 | -79.28691 | 34966 ft | 431 kts | 189° |
| 2026-04-24 15:25 | 16.10059 | -79.29194 | 34965 ft | 431 kts | 189° |
| 2026-04-24 15:26 | 15.95078 | -79.29695 | 34967 ft | 431 kts | 189° |
| 2026-04-24 15:27 | 15.77031 | -79.30296 | 34967 ft | 431 kts | 188° |
| 2026-04-24 15:29 | 15.58998 | -79.30898 | 34967 ft | 432 kts | 189° |
| 2026-04-24 15:31 | 15.37937 | -79.31597 | 34969 ft | 432 kts | 188° |
| 2026-04-24 15:33 | 15.13837 | -79.32391 | 34966 ft | 433 kts | 188° |
| 2026-04-24 15:34 | 14.98807 | -79.32890 | 34967 ft | 432 kts | 188° |
| 2026-04-24 15:35 | 14.83750 | -79.33494 | 34950 ft | 433 kts | 188° |
| 2026-04-24 15:36 | 14.77721 | -79.33733 | 34945 ft | 432 kts | 188° |
| 2026-04-24 15:36 | 14.68700 | -79.34086 | 34946 ft | 432 kts | 188° |
| 2026-04-24 15:37 | 14.62707 | -79.34321 | 34946 ft | 432 kts | 188° |
| 2026-04-24 15:37 | 14.56656 | -79.34558 | 34947 ft | 432 kts | 188° |
| 2026-04-24 15:38 | 14.50644 | -79.34793 | 34946 ft | 433 kts | 188° |
| 2026-04-24 15:38 | 14.44604 | -79.35028 | 34946 ft | 433 kts | 188° |
| 2026-04-24 15:39 | 14.38579 | -79.35263 | 34947 ft | 432 kts | 188° |
| 2026-04-24 15:39 | 14.32573 | -79.35499 | 34947 ft | 432 kts | 187° |
| 2026-04-24 15:40 | 14.27141 | -79.35710 | 34947 ft | 433 kts | 187° |
| 2026-04-24 15:40 | 14.21793 | -79.35920 | 34946 ft | 433 kts | 187° |
| 2026-04-24 15:41 | 14.16320 | -79.36131 | 34948 ft | 433 kts | 187° |
| 2026-04-24 15:41 | 14.10561 | -79.36354 | 34948 ft | 433 kts | 187° |
| 2026-04-24 15:42 | 14.04818 | -79.36578 | 34946 ft | 434 kts | 187° |
| 2026-04-24 15:42 | 13.99037 | -79.36804 | 34946 ft | 434 kts | 187° |
| 2026-04-24 15:43 | 13.93303 | -79.37027 | 34948 ft | 433 kts | 187° |
| 2026-04-24 15:43 | 13.87541 | -79.37249 | 34948 ft | 432 kts | 187° |
| 2026-04-24 15:44 | 13.81855 | -79.37470 | 34947 ft | 433 kts | 187° |
| 2026-04-24 15:44 | 13.75916 | -79.37701 | 34948 ft | 433 kts | 187° |
| 2026-04-24 15:45 | 13.69877 | -79.37934 | 34948 ft | 434 kts | 187° |
| 2026-04-24 15:45 | 13.63838 | -79.38170 | 34947 ft | 434 kts | 186° |
| 2026-04-24 15:46 | 13.57784 | -79.38405 | 34950 ft | 434 kts | 186° |
| 2026-04-24 15:46 | 13.51716 | -79.38639 | 34948 ft | 434 kts | 186° |
| 2026-04-24 15:47 | 13.45679 | -79.38874 | 34946 ft | 435 kts | 186° |
| 2026-04-24 15:47 | 13.39607 | -79.39110 | 34947 ft | 435 kts | 186° |
| 2026-04-24 15:48 | 13.33551 | -79.39343 | 34946 ft | 435 kts | 186° |
| 2026-04-24 15:48 | 13.27502 | -79.39577 | 34947 ft | 435 kts | 186° |
| 2026-04-24 15:49 | 13.21452 | -79.39809 | 34947 ft | 435 kts | 186° |
| 2026-04-24 15:49 | 13.15361 | -79.40045 | 34947 ft | 435 kts | 186° |
| 2026-04-24 15:50 | 13.09327 | -79.40278 | 34947 ft | 435 kts | 186° |
| 2026-04-24 15:50 | 13.03279 | -79.40511 | 34947 ft | 436 kts | 186° |
| 2026-04-24 15:51 | 12.97213 | -79.40746 | 34948 ft | 436 kts | 186° |
| 2026-04-24 15:51 | 12.91150 | -79.40979 | 34946 ft | 435 kts | 186° |
| 2026-04-24 15:52 | 12.85092 | -79.41213 | 34947 ft | 435 kts | 185° |
| 2026-04-24 15:52 | 12.79031 | -79.41446 | 34948 ft | 435 kts | 185° |
| 2026-04-24 15:53 | 12.72958 | -79.41679 | 34947 ft | 435 kts | 185° |
| 2026-04-24 15:53 | 12.66961 | -79.41908 | 34948 ft | 435 kts | 186° |
| 2026-04-24 15:54 | 12.60872 | -79.42145 | 34946 ft | 435 kts | 185° |
| 2026-04-24 15:54 | 12.54827 | -79.42376 | 34947 ft | 436 kts | 185° |
| 2026-04-24 15:55 | 12.48766 | -79.42609 | 34947 ft | 436 kts | 185° |
| 2026-04-24 15:55 | 12.42708 | -79.42841 | 34947 ft | 436 kts | 185° |
| 2026-04-24 15:56 | 12.36613 | -79.43076 | 34947 ft | 436 kts | 185° |
| 2026-04-24 15:56 | 12.30577 | -79.43307 | 34947 ft | 436 kts | 185° |
| 2026-04-24 15:57 | 12.24517 | -79.43540 | 34947 ft | 436 kts | 185° |
| 2026-04-24 15:57 | 12.18437 | -79.43772 | 34947 ft | 436 kts | 185° |
| 2026-04-24 15:58 | 12.12377 | -79.44003 | 34947 ft | 436 kts | 185° |
| 2026-04-24 15:58 | 12.06311 | -79.44236 | 34946 ft | 436 kts | 185° |
| 2026-04-24 15:59 | 12.00261 | -79.44469 | 34947 ft | 436 kts | 185° |
| 2026-04-24 15:59 | 11.94201 | -79.44701 | 34948 ft | 437 kts | 185° |
| 2026-04-24 16:00 | 11.88099 | -79.44934 | 34948 ft | 437 kts | 185° |
| 2026-04-24 16:00 | 11.82001 | -79.45167 | 34946 ft | 437 kts | 185° |
| 2026-04-24 16:01 | 11.75921 | -79.45400 | 34945 ft | 437 kts | 185° |
| 2026-04-24 16:01 | 11.69853 | -79.45630 | 34945 ft | 437 kts | 185° |
| 2026-04-24 16:02 | 11.63759 | -79.45863 | 34940 ft | 438 kts | 185° |
| 2026-04-24 16:02 | 11.57641 | -79.46096 | 34933 ft | 438 kts | 185° |
| 2026-04-24 16:03 | 11.51563 | -79.46328 | 34937 ft | 438 kts | 185° |
| 2026-04-24 16:03 | 11.45468 | -79.46561 | 34945 ft | 438 kts | 185° |
| 2026-04-24 16:04 | 11.39359 | -79.46793 | 34948 ft | 438 kts | 184° |
| 2026-04-24 16:04 | 11.33245 | -79.47026 | 34948 ft | 438 kts | 184° |
| 2026-04-24 16:05 | 11.24119 | -79.47372 | 34948 ft | 439 kts | 184° |
| 2026-04-24 16:06 | 11.14918 | -79.47723 | 34948 ft | 440 kts | 184° |
| 2026-04-24 16:07 | 11.05740 | -79.48071 | 34948 ft | 440 kts | 184° |
| 2026-04-24 16:07 | 10.96544 | -79.48419 | 34948 ft | 440 kts | 184° |
| 2026-04-24 16:08 | 10.87330 | -79.48768 | 34949 ft | 440 kts | 184° |
| 2026-04-24 16:09 | 10.78169 | -79.49115 | 34948 ft | 439 kts | 184° |
| 2026-04-24 16:09 | 10.72053 | -79.49345 | 34948 ft | 440 kts | 184° |
| 2026-04-24 16:11 | 10.56705 | -79.49921 | 34947 ft | 440 kts | 184° |
| 2026-04-24 16:11 | 10.50626 | -79.50150 | 34947 ft | 440 kts | 184° |
| 2026-04-24 16:12 | 10.41579 | -79.50478 | 34947 ft | 439 kts | 184° |
| 2026-04-24 16:13 | 10.32396 | -79.50806 | 34947 ft | 440 kts | 183° |
| 2026-04-24 16:14 | 10.20152 | -79.51239 | 34947 ft | 440 kts | 183° |
| 2026-04-24 16:14 | 10.10956 | -79.51565 | 34946 ft | 440 kts | 183° |
| 2026-04-24 16:15 | 10.01855 | -79.51887 | 34945 ft | 439 kts | 183° |
| 2026-04-24 16:16 | 9.92657 | -79.52213 | 34945 ft | 439 kts | 183° |
| 2026-04-24 16:17 | 9.83578 | -79.52534 | 34542 ft | 433 kts | 183° |
| 2026-04-24 16:17 | 9.77619 | -79.52742 | 33001 ft | 435 kts | 183° |
| 2026-04-24 16:18 | 9.71555 | -79.52956 | 31318 ft | 441 kts | 183° |
| 2026-04-24 16:18 | 9.65452 | -79.53173 | 30670 ft | 444 kts | 183° |
| 2026-04-24 16:18 | 9.62337 | -79.53284 | 30456 ft | 444 kts | 183° |
| 2026-04-24 16:19 | 9.56239 | -79.53499 | 29333 ft | 441 kts | 183° |
| 2026-04-24 16:19 | 9.53154 | -79.53609 | 28657 ft | 439 kts | 183° |
| 2026-04-24 16:20 | 9.47129 | -79.53820 | 27546 ft | 432 kts | 183° |
| 2026-04-24 16:20 | 9.41121 | -79.54028 | 26360 ft | 427 kts | 183° |
| 2026-04-24 16:20 | 9.38145 | -79.54134 | 25789 ft | 425 kts | 183° |
| 2026-04-24 16:21 | 9.32274 | -79.54341 | 24630 ft | 421 kts | 183° |
| 2026-04-24 16:21 | 9.29371 | -79.54443 | 24070 ft | 418 kts | 183° |
| 2026-04-24 16:21 | 9.26475 | -79.54544 | 23515 ft | 416 kts | 183° |
| 2026-04-24 16:22 | 9.23585 | -79.54645 | 22955 ft | 414 kts | 184° |
| 2026-04-24 16:22 | 9.17846 | -79.54847 | 21855 ft | 410 kts | 184° |
| 2026-04-24 16:22 | 9.15003 | -79.54947 | 21369 ft | 406 kts | 183° |
| 2026-04-24 16:23 | 9.12199 | -79.55046 | 20890 ft | 402 kts | 183° |
| 2026-04-24 16:23 | 9.09412 | -79.55145 | 20399 ft | 399 kts | 183° |
| 2026-04-24 16:23 | 9.06645 | -79.55243 | 19910 ft | 396 kts | 183° |
| 2026-04-24 16:24 | 9.01161 | -79.55434 | 18954 ft | 390 kts | 183° |
| 2026-04-24 16:24 | 8.98502 | -79.55527 | 18492 ft | 387 kts | 183° |
| 2026-04-24 16:24 | 8.95815 | -79.55620 | 18038 ft | 383 kts | 183° |
| 2026-04-24 16:24 | 8.93186 | -79.55711 | 17587 ft | 379 kts | 182° |
| 2026-04-24 16:25 | 8.90556 | -79.55803 | 17134 ft | 376 kts | 182° |
| 2026-04-24 16:25 | 8.87924 | -79.55894 | 16683 ft | 372 kts | 182° |
| 2026-04-24 16:25 | 8.85354 | -79.55981 | 16222 ft | 370 kts | 182° |
| 2026-04-24 16:26 | 8.80239 | -79.56323 | 15244 ft | 365 kts | 196° |
| 2026-04-24 16:26 | 8.78013 | -79.57439 | 14733 ft | 361 kts | 219° |
| 2026-04-24 16:26 | 8.74911 | -79.61304 | 13816 ft | 354 kts | 235° |
| 2026-04-24 16:27 | 8.73499 | -79.63303 | 13338 ft | 352 kts | 235° |
| 2026-04-24 16:27 | 8.72057 | -79.65316 | 12879 ft | 350 kts | 234° |
| 2026-04-24 16:27 | 8.70641 | -79.67270 | 12426 ft | 347 kts | 234° |
| 2026-04-24 16:27 | 8.69217 | -79.69225 | 11988 ft | 345 kts | 234° |
| 2026-04-24 16:28 | 8.67789 | -79.71180 | 11504 ft | 343 kts | 234° |
| 2026-04-24 16:28 | 8.66387 | -79.73096 | 11054 ft | 340 kts | 234° |
| 2026-04-24 16:28 | 8.63598 | -79.76907 | 10153 ft | 335 kts | 234° |
| 2026-04-24 16:29 | 8.62227 | -79.78797 | 9839 ft | 327 kts | 234° |
| 2026-04-24 16:29 | 8.60899 | -79.80634 | 9658 ft | 316 kts | 234° |
| 2026-04-24 16:29 | 8.58395 | -79.84100 | 9311 ft | 296 kts | 234° |
| 2026-04-24 16:30 | 8.55526 | -79.86846 | 8782 ft | 285 kts | 212° |
| 2026-04-24 16:30 | 8.53808 | -79.87844 | 8472 ft | 281 kts | 210° |
| 2026-04-24 16:30 | 8.52128 | -79.88783 | 8299 ft | 272 kts | 210° |
| 2026-04-24 16:31 | 8.50514 | -79.89684 | 8126 ft | 263 kts | 210° |
| 2026-04-24 16:31 | 8.48921 | -79.90571 | 7852 ft | 260 kts | 210° |
| 2026-04-24 16:31 | 8.47329 | -79.91460 | 7499 ft | 259 kts | 210° |
| 2026-04-24 16:31 | 8.45766 | -79.92336 | 7148 ft | 258 kts | 210° |
| 2026-04-24 16:32 | 8.44198 | -79.93217 | 6823 ft | 256 kts | 210° |
| 2026-04-24 16:32 | 8.42640 | -79.94095 | 6493 ft | 254 kts | 210° |
| 2026-04-24 16:32 | 8.41100 | -79.94966 | 6159 ft | 253 kts | 210° |
| 2026-04-24 16:32 | 8.39563 | -79.95844 | 5796 ft | 253 kts | 210° |
| 2026-04-24 16:33 | 8.38040 | -79.96721 | 5577 ft | 245 kts | 209° |
| 2026-04-24 16:33 | 8.36546 | -79.97499 | 5354 ft | 240 kts | 205° |
| 2026-04-24 16:33 | 8.35036 | -79.98226 | 5040 ft | 239 kts | 205° |
| 2026-04-24 16:33 | 8.33540 | -79.98934 | 4711 ft | 239 kts | 205° |
| 2026-04-24 16:34 | 8.32042 | -79.99644 | 4394 ft | 237 kts | 204° |
| 2026-04-24 16:34 | 8.30532 | -80.00356 | 4079 ft | 236 kts | 201° |
| 2026-04-24 16:34 | 8.28998 | -80.00887 | 3772 ft | 234 kts | 196° |
| 2026-04-24 16:34 | 8.27427 | -80.01342 | 3448 ft | 233 kts | 195° |
| 2026-04-24 16:35 | 8.25862 | -80.01783 | 3142 ft | 231 kts | 195° |
| 2026-04-24 16:35 | 8.24314 | -80.02218 | 2826 ft | 230 kts | 195° |
| 2026-04-24 16:35 | 8.22776 | -80.02649 | 2499 ft | 230 kts | 195° |
| 2026-04-24 16:35 | 8.21290 | -80.03157 | 2210 ft | 229 kts | 210° |
| 2026-04-24 16:36 | 8.20177 | -80.04305 | 2170 ft | 233 kts | 243° |
| 2026-04-24 16:36 | 8.19848 | -80.05891 | 2168 ft | 236 kts | 275° |
| 2026-04-24 16:36 | 8.20411 | -80.07426 | 2166 ft | 235 kts | 308° |
| 2026-04-24 16:36 | 8.21657 | -80.08405 | 2163 ft | 218 kts | 338° |
| 2026-04-24 16:37 | 8.23100 | -80.08839 | 2252 ft | 215 kts | 347° |
| 2026-04-24 16:37 | 8.24502 | -80.09159 | 2181 ft | 199 kts | 347° |
| 2026-04-24 16:37 | 8.25831 | -80.09495 | 2205 ft | 193 kts | 346° |
| 2026-04-24 16:37 | 8.27130 | -80.09856 | 1994 ft | 192 kts | 345° |
| 2026-04-24 16:38 | 8.28394 | -80.10222 | 1750 ft | 183 kts | 345° |
| 2026-04-24 16:38 | 8.29566 | -80.10561 | 1515 ft | 166 kts | 345° |
| 2026-04-24 16:38 | 8.30628 | -80.10864 | 1288 ft | 151 kts | 345° |
| 2026-04-24 16:38 | 8.31639 | -80.11153 | 1117 ft | 150 kts | 345° |
| 2026-04-24 16:39 | 8.32640 | -80.11437 | 939 ft | 149 kts | 344° |
| 2026-04-24 16:39 | 8.33641 | -80.11706 | 759 ft | 149 kts | 345° |
| 2026-04-24 16:39 | 8.34638 | -80.12013 | 545 ft | 149 kts | 345° |
| 2026-04-24 16:39 | 8.35639 | -80.12284 | 364 ft | 149 kts | 343° |
| 2026-04-24 16:40 | 8.36647 | -80.12579 | 184 ft | 149 kts | 344° |
| 2026-04-24 16:40 | 8.37600 | -80.12848 | 103 ft | 117 kts | 344° |
| 2026-04-24 16:40 | 8.38138 | -80.13000 | 116 ft | 57 kts | 345° |
| 2026-04-24 16:40 | 8.38396 | -80.13075 | 124 ft | 24 kts | 343° |
| 2026-04-24 16:41 | 8.38539 | -80.13116 | 125 ft | 12 kts | 343° |
| 2026-04-24 16:41 | 8.38613 | -80.13135 | 126 ft | 6 kts | 358° |
| 2026-04-24 16:41 | 8.38654 | -80.13117 | 126 ft | 6 kts | 53° |
| 2026-04-24 16:41 | 8.38670 | -80.13072 | 126 ft | 7 kts | 73° |
| 2026-04-24 16:42 | 8.38680 | -80.13035 | 127 ft | 4 kts | 83° |
| 2026-04-24 16:42 | 8.38675 | -80.13003 | 127 ft | 4 kts | 99° |
| 2026-04-24 16:42 | 8.38673 | -80.12987 | 126 ft | 1 kts | 90° |
| 2026-04-24 16:42 | 8.38676 | -80.12978 | 126 ft | 1 kts | 75° |
| 2026-04-24 16:43 | 8.38681 | -80.12959 | 127 ft | 4 kts | 74° |
| 2026-04-24 16:43 | 8.38688 | -80.12934 | 127 ft | 2 kts | 73° |
| 2026-04-24 16:43 | 8.38690 | -80.12928 | 127 ft | 0 kts | 73° |